Time;durP1;ratioP1;P1;durP2;ratioP2;P2;SDS_P1;SDS_P2;PMS_P1;PMS_P2;Temp;Humidity;BMP_temperature;BMP_pressure;BME280_temperature;BME280_humidity;BME280_pressure;Samples;Min_cycle;Max_cycle;Signal;HPM_P1;HPM_P2
2021/10/27 00:01:58;;;;;;;11.43;2.83;;;;;;;;;;5035917;28;20037;-66
2021/10/27 00:04:24;;;;;;;10.07;2.85;;;;;;;;;;5034278;28;20017;-70
2021/10/27 00:06:50;;;;;;;9.55;2.65;;;;;;;;;;5035685;28;20026;-70
2021/10/27 00:09:16;;;;;;;10.70;3.00;;;;;;;;;;5036077;28;20033;-70
2021/10/27 00:11:43;;;;;;;9.85;2.63;;;;;;;;;;5017973;28;20033;-70
2021/10/27 00:14:08;;;;;;;9.75;2.60;;;;;;;;;;5035700;28;20030;-65
2021/10/27 00:16:35;;;;;;;6.05;1.98;;;;;;;;;;5017779;28;20040;-69
2021/10/27 00:19:01;;;;;;;10.82;2.58;;;;;;;;;;5035670;28;20095;-69
2021/10/27 00:21:27;;;;;;;9.55;2.70;;;;;;;;;;5035803;28;20073;-64
2021/10/27 00:23:53;;;;;;;11.00;2.35;;;;;;;;;;5035627;28;20060;-70
2021/10/27 00:26:19;;;;;;;8.32;2.10;;;;;;;;;;5035851;28;20026;-70
2021/10/27 00:28:46;;;;;;;9.90;2.72;;;;;;;;;;5035775;28;20026;-69
2021/10/27 00:31:12;;;;;;;12.05;2.92;;;;;;;;;;5017594;28;20445;-67
2021/10/27 00:33:38;;;;;;;7.68;2.33;;;;;;;;;;5035068;28;20037;-67
2021/10/27 00:36:07;;;;;;;9.93;2.45;;;;;;;;;;5035871;28;20021;-68
2021/10/27 00:38:33;;;;;;;6.30;2.08;;;;;;;;;;5035406;28;20022;-64
2021/10/27 00:40:59;;;;;;;8.02;2.40;;;;;;;;;;5035492;28;20061;-69
2021/10/27 00:43:25;;;;;;;9.43;2.40;;;;;;;;;;5017621;28;20025;-70
2021/10/27 00:45:51;;;;;;;7.18;2.28;;;;;;;;;;5035418;28;20025;-66
2021/10/27 00:48:17;;;;;;;9.10;2.53;;;;;;;;;;5034737;28;20029;-65
2021/10/27 00:50:43;;;;;;;10.18;2.38;;;;;;;;;;5035095;28;20036;-67
2021/10/27 00:53:09;;;;;;;8.63;2.78;;;;;;;;;;5035077;28;20041;-66
2021/10/27 00:55:34;;;;;;;11.93;2.63;;;;;;;;;;5035110;28;20030;-64
2021/10/27 00:58:00;;;;;;;8.73;2.63;;;;;;;;;;5035491;28;20053;-70
2021/10/27 01:00:26;;;;;;;10.63;2.42;;;;;;;;;;5034698;28;20380;-68
2021/10/27 01:02:53;;;;;;;7.78;2.42;;;;;;;;;;5035093;28;20084;-70
2021/10/27 01:05:20;;;;;;;7.47;2.28;;;;;;;;;;5018830;28;20076;-65
2021/10/27 01:07:46;;;;;;;8.85;2.33;;;;;;;;;;5014895;28;20029;-69
2021/10/27 01:10:12;;;;;;;9.80;2.78;;;;;;;;;;5015097;28;20053;-67
2021/10/27 01:12:38;;;;;;;8.35;2.50;;;;;;;;;;4997550;28;20068;-67
2021/10/27 01:15:05;;;;;;;12.32;2.70;;;;;;;;;;5014727;28;20537;-65
2021/10/27 01:17:32;;;;;;;10.20;2.40;;;;;;;;;;4996048;28;20444;-70
2021/10/27 01:19:59;;;;;;;10.13;2.53;;;;;;;;;;5016237;28;20046;-68
2021/10/27 01:22:38;;;;;;;11.25;2.28;;;;;;;;;;5034565;28;20144;-70
2021/10/27 01:25:06;;;;;;;7.60;2.20;;;;;;;;;;5017135;28;20411;-71
2021/10/27 01:27:32;;;;;;;12.13;2.38;;;;;;;;;;5034627;28;20029;-71
2021/10/27 01:29:58;;;;;;;10.80;2.25;;;;;;;;;;5034404;28;20021;-68
2021/10/27 01:32:32;;;;;;;11.85;2.50;;;;;;;;;;5034339;28;20464;-67
2021/10/27 01:34:59;;;;;;;11.60;2.33;;;;;;;;;;5034664;28;20083;-69
2021/10/27 01:37:25;;;;;;;9.57;2.22;;;;;;;;;;5033924;28;20022;-65
2021/10/27 01:39:53;;;;;;;10.38;2.47;;;;;;;;;;5034065;28;20062;-68
2021/10/27 01:42:19;;;;;;;8.38;2.22;;;;;;;;;;5034041;28;20064;-72
2021/10/27 01:44:45;;;;;;;9.18;2.70;;;;;;;;;;5016412;28;20056;-71
2021/10/27 01:47:11;;;;;;;8.57;2.00;;;;;;;;;;5033959;28;20105;-68
2021/10/27 01:49:37;;;;;;;11.30;2.40;;;;;;;;;;5016768;28;20049;-70
2021/10/27 01:52:04;;;;;;;9.10;2.55;;;;;;;;;;5034192;28;20143;-68
2021/10/27 01:54:30;;;;;;;8.80;2.10;;;;;;;;;;5033955;28;20034;-68
2021/10/27 01:56:57;;;;;;;10.63;2.50;;;;;;;;;;5033905;28;20403;-69
2021/10/27 01:59:23;;;;;;;8.80;2.15;;;;;;;;;;5033876;28;20028;-70
2021/10/27 02:01:49;;;;;;;7.38;2.25;;;;;;;;;;5033942;28;20468;-70
2021/10/27 02:04:15;;;;;;;11.13;2.20;;;;;;;;;;5033843;28;20029;-69
2021/10/27 02:06:41;;;;;;;11.23;2.58;;;;;;;;;;5033837;28;20063;-69
2021/10/27 02:09:07;;;;;;;10.93;2.50;;;;;;;;;;5033533;28;20052;-69
2021/10/27 02:11:33;;;;;;;14.32;2.45;;;;;;;;;;5034076;28;20051;-68
2021/10/27 02:13:59;;;;;;;6.30;1.80;;;;;;;;;;5033445;28;20014;-70
2021/10/27 02:16:25;;;;;;;9.10;2.00;;;;;;;;;;5015730;28;20033;-69
2021/10/27 02:18:52;;;;;;;8.98;2.33;;;;;;;;;;5016236;28;20117;-70
2021/10/27 02:21:18;;;;;;;10.60;2.25;;;;;;;;;;5033872;28;20057;-66
2021/10/27 02:23:45;;;;;;;7.25;2.13;;;;;;;;;;5033618;28;20075;-70
2021/10/27 02:26:11;;;;;;;8.00;2.42;;;;;;;;;;5033338;28;20026;-70
2021/10/27 02:28:37;;;;;;;8.40;2.00;;;;;;;;;;5033062;28;20067;-70
2021/10/27 02:31:04;;;;;;;10.40;2.38;;;;;;;;;;5033549;28;20025;-65
2021/10/27 02:33:30;;;;;;;13.45;2.10;;;;;;;;;;5033743;28;20452;-65
2021/10/27 02:35:56;;;;;;;9.63;2.17;;;;;;;;;;5033128;28;20026;-70
2021/10/27 02:38:22;;;;;;;11.93;2.30;;;;;;;;;;5033486;28;20078;-71
2021/10/27 02:40:48;;;;;;;10.90;2.67;;;;;;;;;;5032715;28;20040;-68
2021/10/27 02:43:15;;;;;;;11.57;2.50;;;;;;;;;;5033363;28;20029;-71
2021/10/27 02:45:42;;;;;;;10.18;2.20;;;;;;;;;;5033637;28;20330;-70
2021/10/27 02:48:08;;;;;;;9.02;2.00;;;;;;;;;;5033407;28;20022;-69
2021/10/27 02:50:34;;;;;;;10.93;1.90;;;;;;;;;;5033285;28;20041;-64
2021/10/27 02:53:01;;;;;;;9.38;2.30;;;;;;;;;;5033580;28;20108;-67
2021/10/27 02:55:30;;;;;;;12.45;2.45;;;;;;;;;;5033175;28;20018;-66
2021/10/27 02:57:56;;;;;;;9.90;2.08;;;;;;;;;;5033356;28;20376;-67
2021/10/27 03:00:24;;;;;;;7.90;2.08;;;;;;;;;;5033242;28;20133;-70
2021/10/27 03:02:50;;;;;;;10.82;2.10;;;;;;;;;;5015104;28;20109;-68
2021/10/27 03:05:16;;;;;;;10.07;2.00;;;;;;;;;;5015229;28;20060;-69
2021/10/27 03:07:42;;;;;;;8.70;1.90;;;;;;;;;;5033410;28;20034;-66
2021/10/27 03:10:09;;;;;;;5.95;1.88;;;;;;;;;;5033100;28;20044;-64
2021/10/27 03:12:35;;;;;;;9.43;1.75;;;;;;;;;;5033228;28;20482;-69
2021/10/27 03:15:01;;;;;;;14.82;2.20;;;;;;;;;;5032912;28;20029;-70
2021/10/27 03:17:27;;;;;;;9.82;1.90;;;;;;;;;;5033239;28;20026;-67
2021/10/27 03:19:53;;;;;;;6.53;1.75;;;;;;;;;;5032533;28;20045;-69
2021/10/27 03:22:19;;;;;;;8.23;1.77;;;;;;;;;;5032015;28;20030;-70
2021/10/27 03:24:45;;;;;;;10.63;1.52;;;;;;;;;;5032833;28;20021;-70
2021/10/27 03:27:11;;;;;;;7.38;1.70;;;;;;;;;;5015223;28;20106;-65
2021/10/27 03:29:37;;;;;;;13.27;1.77;;;;;;;;;;5033153;28;20028;-69
2021/10/27 03:32:03;;;;;;;6.25;1.80;;;;;;;;;;5033293;28;20021;-70
2021/10/27 03:34:29;;;;;;;9.13;1.92;;;;;;;;;;5032916;28;20480;-69
2021/10/27 03:36:55;;;;;;;10.48;2.15;;;;;;;;;;5032808;28;20033;-70
2021/10/27 03:39:21;;;;;;;9.45;2.00;;;;;;;;;;5031731;28;20029;-69
2021/10/27 03:41:48;;;;;;;9.88;1.90;;;;;;;;;;5018585;28;20033;-67
2021/10/27 03:44:13;;;;;;;5.55;1.92;;;;;;;;;;5019069;28;20029;-67
2021/10/27 03:46:40;;;;;;;8.98;1.77;;;;;;;;;;5036150;28;20467;-63
2021/10/27 03:49:06;;;;;;;10.05;2.20;;;;;;;;;;5018545;28;20030;-69
2021/10/27 03:51:32;;;;;;;5.28;1.60;;;;;;;;;;5018595;28;20480;-69
2021/10/27 03:53:58;;;;;;;6.47;1.67;;;;;;;;;;5036205;28;20095;-68
2021/10/27 03:56:24;;;;;;;8.52;2.35;;;;;;;;;;5036064;28;20333;-70
2021/10/27 03:58:50;;;;;;;10.30;2.15;;;;;;;;;;5036000;28;20353;-66
2021/10/27 04:01:16;;;;;;;6.47;2.13;;;;;;;;;;5035876;28;20495;-67
2021/10/27 04:03:42;;;;;;;8.07;2.08;;;;;;;;;;5036265;28;20026;-64
2021/10/27 04:06:08;;;;;;;5.50;1.73;;;;;;;;;;5036019;28;20021;-67
2021/10/27 04:08:35;;;;;;;8.55;2.00;;;;;;;;;;5035797;28;20022;-68
2021/10/27 04:11:01;;;;;;;7.60;1.88;;;;;;;;;;5018772;28;20481;-72
2021/10/27 04:13:27;;;;;;;7.75;1.80;;;;;;;;;;5035459;28;20061;-70
2021/10/27 04:15:53;;;;;;;7.80;1.77;;;;;;;;;;5035649;28;20022;-69
2021/10/27 04:18:19;;;;;;;6.53;1.75;;;;;;;;;;5035373;28;20028;-69
2021/10/27 04:20:45;;;;;;;10.02;2.13;;;;;;;;;;5035703;28;20038;-65
2021/10/27 04:23:12;;;;;;;10.60;2.03;;;;;;;;;;5036021;28;20361;-70
2021/10/27 04:25:38;;;;;;;9.18;2.00;;;;;;;;;;5035484;28;20075;-70
2021/10/27 04:28:05;;;;;;;4.78;1.88;;;;;;;;;;5035692;28;20031;-70
2021/10/27 04:30:31;;;;;;;8.73;2.28;;;;;;;;;;5035371;28;20031;-70
2021/10/27 04:32:57;;;;;;;11.98;2.08;;;;;;;;;;5035255;28;20449;-71
2021/10/27 04:35:25;;;;;;;9.18;1.88;;;;;;;;;;5018051;28;20088;-69
2021/10/27 04:37:51;;;;;;;11.98;2.00;;;;;;;;;;5035604;28;20028;-65
2021/10/27 04:40:18;;;;;;;8.98;1.70;;;;;;;;;;5016627;28;20033;-65
2021/10/27 04:42:44;;;;;;;7.20;2.00;;;;;;;;;;5017398;28;20391;-70
2021/10/27 04:45:11;;;;;;;6.72;1.85;;;;;;;;;;5035416;28;20017;-66
2021/10/27 04:47:38;;;;;;;7.00;1.50;;;;;;;;;;5035264;28;20108;-70
2021/10/27 04:50:07;;;;;;;8.85;2.00;;;;;;;;;;5035461;28;20036;-69
2021/10/27 04:52:33;;;;;;;8.43;2.03;;;;;;;;;;5035020;28;20511;-69
2021/10/27 04:54:59;;;;;;;10.60;2.08;;;;;;;;;;5035578;28;20025;-69
2021/10/27 04:57:25;;;;;;;12.55;2.00;;;;;;;;;;5035090;28;20380;-65
2021/10/27 04:59:51;;;;;;;12.85;2.15;;;;;;;;;;5034842;28;20029;-64
2021/10/27 05:02:17;;;;;;;8.38;1.77;;;;;;;;;;5035105;28;20029;-69
2021/10/27 05:04:44;;;;;;;5.45;1.75;;;;;;;;;;5034908;28;20036;-69
2021/10/27 05:07:12;;;;;;;6.93;1.95;;;;;;;;;;5034820;28;20527;-70
2021/10/27 05:09:38;;;;;;;10.95;1.75;;;;;;;;;;5034805;28;20465;-70
2021/10/27 05:12:04;;;;;;;8.93;2.03;;;;;;;;;;5034048;28;20030;-70
2021/10/27 05:14:31;;;;;;;10.00;2.10;;;;;;;;;;5034664;28;20033;-68
2021/10/27 05:16:57;;;;;;;8.23;1.98;;;;;;;;;;5034552;28;20033;-68
2021/10/27 05:19:23;;;;;;;5.22;1.70;;;;;;;;;;5034243;28;20053;-69
2021/10/27 05:21:50;;;;;;;8.95;1.67;;;;;;;;;;5034318;28;20188;-66
2021/10/27 05:24:16;;;;;;;7.60;2.00;;;;;;;;;;5034984;28;20295;-70
2021/10/27 05:26:42;;;;;;;7.68;2.55;;;;;;;;;;5034525;28;20108;-69
2021/10/27 05:29:08;;;;;;;9.57;2.47;;;;;;;;;;5033698;28;20029;-70
2021/10/27 05:31:34;;;;;;;8.68;2.22;;;;;;;;;;5000573;28;20041;-68
2021/10/27 05:34:01;;;;;;;8.35;2.20;;;;;;;;;;5016956;28;20021;-67
2021/10/27 05:36:27;;;;;;;11.88;2.28;;;;;;;;;;5034383;28;20025;-66
2021/10/27 05:38:53;;;;;;;12.85;2.15;;;;;;;;;;5034432;28;20029;-71
2021/10/27 05:41:21;;;;;;;22.63;2.45;;;;;;;;;;5016480;28;20052;-69
2021/10/27 05:43:47;;;;;;;15.18;2.65;;;;;;;;;;5034595;28;20100;-70
2021/10/27 05:46:14;;;;;;;12.43;2.05;;;;;;;;;;5003421;28;20125;-71
2021/10/27 05:48:45;;;;;;;6.93;1.80;;;;;;;;;;5014471;28;20025;-69
2021/10/27 05:56:22;;;;;;;23.02;2.47;;;;;;;;;;5014512;28;20457;-69
2021/10/27 05:58:48;;;;;;;23.02;2.30;;;;;;;;;;5014549;28;20424;-66
2021/10/27 06:01:15;;;;;;;27.00;3.28;;;;;;;;;;5014281;28;20056;-68
2021/10/27 06:03:41;;;;;;;25.38;2.50;;;;;;;;;;5013742;28;20022;-66
2021/10/27 06:06:07;;;;;;;13.43;2.97;;;;;;;;;;5014503;28;20393;-71
2021/10/27 06:08:34;;;;;;;20.23;2.72;;;;;;;;;;5024471;28;20074;-70
2021/10/27 06:11:10;;;;;;;17.58;2.13;;;;;;;;;;5049245;28;20013;-70
2021/10/27 06:13:46;;;;;;;12.00;2.70;;;;;;;;;;5033424;28;20025;-71
2021/10/27 06:16:15;;;;;;;19.45;2.70;;;;;;;;;;5044629;28;20013;-70
2021/10/27 06:18:45;;;;;;;22.10;2.78;;;;;;;;;;5022617;28;20120;-71
2021/10/27 06:21:12;;;;;;;71.28;3.65;;;;;;;;;;5034697;28;20037;-63
2021/10/27 06:23:40;;;;;;;45.95;3.00;;;;;;;;;;5034831;28;20075;-62
2021/10/27 06:26:06;;;;;;;29.25;3.17;;;;;;;;;;5029459;28;20022;-63
2021/10/27 06:28:41;;;;;;;26.50;2.47;;;;;;;;;;5034294;28;20498;-64
2021/10/27 06:31:14;;;;;;;37.45;3.15;;;;;;;;;;5024588;28;20032;-65
2021/10/27 06:33:56;;;;;;;23.60;3.08;;;;;;;;;;5026094;28;20020;-64
2021/10/27 06:46:46;;;;;;;11.35;3.05;;;;;;;;;;5033804;28;20091;-64
2021/10/27 06:49:12;;;;;;;22.63;2.47;;;;;;;;;;5033609;28;20017;-64
2021/10/27 06:51:38;;;;;;;11.10;2.30;;;;;;;;;;5033547;28;20050;-65
2021/10/27 06:54:04;;;;;;;9.95;2.10;;;;;;;;;;5015366;28;20476;-65
2021/10/27 06:56:33;;;;;;;20.48;2.42;;;;;;;;;;5035806;28;20060;-64
2021/10/27 07:17:24;;;;;;;15.13;3.70;;;;;;;;;;5036593;28;20041;-63
2021/10/27 07:19:50;;;;;;;8.75;3.10;;;;;;;;;;5036709;28;20046;-64
2021/10/27 07:22:16;;;;;;;8.80;2.75;;;;;;;;;;5018967;28;20215;-63
2021/10/27 07:24:42;;;;;;;8.90;2.83;;;;;;;;;;5036485;28;20024;-63
2021/10/27 07:27:10;;;;;;;14.10;3.22;;;;;;;;;;5036575;28;20029;-63
2021/10/27 07:29:38;;;;;;;9.55;3.10;;;;;;;;;;5036575;28;20021;-63
2021/10/27 07:32:06;;;;;;;11.18;2.70;;;;;;;;;;5036744;28;20027;-63
2021/10/27 07:34:35;;;;;;;14.20;3.67;;;;;;;;;;5036524;28;20021;-63
2021/10/27 07:40:06;;;;;;;12.18;3.28;;;;;;;;;;5036405;28;20045;-63
2021/10/27 07:42:34;;;;;;;9.20;3.47;;;;;;;;;;5036285;28;20038;-63
2021/10/27 07:45:00;;;;;;;12.15;3.10;;;;;;;;;;5024769;28;20345;-63
2021/10/27 07:47:26;;;;;;;10.77;2.95;;;;;;;;;;5036437;28;20508;-63
2021/10/27 07:49:52;;;;;;;13.98;3.60;;;;;;;;;;5024750;28;20017;-63
2021/10/27 07:52:18;;;;;;;12.45;3.65;;;;;;;;;;5016182;28;20022;-64
2021/10/27 07:54:45;;;;;;;9.52;3.40;;;;;;;;;;4998528;28;20377;-64
2021/10/27 07:57:11;;;;;;;9.23;2.88;;;;;;;;;;5016186;28;20079;-64
2021/10/27 07:59:37;;;;;;;9.80;3.35;;;;;;;;;;5016298;28;20046;-63
2021/10/27 08:02:06;;;;;;;12.13;3.58;;;;;;;;;;5027548;28;20079;-64
2021/10/27 08:04:36;;;;;;;9.40;3.00;;;;;;;;;;5035570;28;20028;-64
2021/10/27 08:07:02;;;;;;;14.23;3.53;;;;;;;;;;5035615;28;20034;-64
2021/10/27 08:09:28;;;;;;;10.65;2.97;;;;;;;;;;5035785;28;20029;-70
2021/10/27 08:11:54;;;;;;;12.32;3.83;;;;;;;;;;5035458;28;20033;-64
2021/10/27 08:14:20;;;;;;;13.40;3.53;;;;;;;;;;5035500;28;20523;-63
2021/10/27 08:16:46;;;;;;;9.45;3.03;;;;;;;;;;5017879;28;20116;-63
2021/10/27 08:19:13;;;;;;;12.88;3.45;;;;;;;;;;5035143;28;20520;-63
2021/10/27 08:21:39;;;;;;;11.20;3.38;;;;;;;;;;5035473;28;20037;-62
2021/10/27 08:24:07;;;;;;;9.90;3.15;;;;;;;;;;5035351;28;20025;-63
2021/10/27 08:26:33;;;;;;;9.38;3.30;;;;;;;;;;5034691;28;20029;-63
2021/10/27 08:29:00;;;;;;;10.75;3.08;;;;;;;;;;5035248;28;20084;-63
2021/10/27 08:31:47;;;;;;;14.30;3.33;;;;;;;;;;5017707;28;20021;-65
2021/10/27 08:34:55;;;;;;;13.48;3.20;;;;;;;;;;5035419;28;20469;-66
2021/10/27 08:37:02;;;;;;;9.50;3.85;;;;;;;;;;5031869;28;20037;-65
2021/10/27 08:39:28;;;;;;;12.30;3.40;;;;;;;;;;5017314;28;20032;-64
2021/10/27 08:41:54;;;;;;;8.00;3.35;;;;;;;;;;5035276;28;20112;-65
2021/10/27 08:44:20;;;;;;;8.80;2.88;;;;;;;;;;5017321;28;20022;-65
2021/10/27 08:46:47;;;;;;;8.18;3.13;;;;;;;;;;5034944;28;20117;-65
2021/10/27 08:49:17;;;;;;;9.85;2.95;;;;;;;;;;5035478;28;20461;-65
2021/10/27 08:51:43;;;;;;;10.00;2.90;;;;;;;;;;5035140;28;20060;-65
2021/10/27 08:54:10;;;;;;;12.13;2.90;;;;;;;;;;5017538;28;20022;-65
2021/10/27 08:56:41;;;;;;;9.55;3.05;;;;;;;;;;5017190;28;20021;-65
2021/10/27 08:59:31;;;;;;;8.93;2.70;;;;;;;;;;5035231;28;20022;-65
2021/10/27 09:07:41;;;;;;;7.57;2.92;;;;;;;;;;5034885;28;20040;-65
2021/10/27 09:37:20;;;;;;;13.25;2.92;;;;;;;;;;5152161;27;20042;-66
2021/10/27 09:40:15;;;;;;;8.93;2.53;;;;;;;;;;5131186;27;20047;-66
2021/10/27 10:04:02;;;;;;;13.98;2.65;;;;;;;;;;5111096;28;20054;-66
2021/10/27 10:05:15;;;;;;;7.75;2.50;;;;;;;;;;5110697;28;20065;-65
2021/10/27 10:07:42;;;;;;;15.48;2.97;;;;;;;;;;5110691;28;20024;-66
2021/10/27 10:10:08;;;;;;;11.82;2.95;;;;;;;;;;5131023;27;20335;-64
2021/10/27 10:12:44;;;;;;;9.38;3.10;;;;;;;;;;5131011;28;20134;-66
2021/10/27 10:15:11;;;;;;;11.80;2.60;;;;;;;;;;5131013;28;20026;-65
2021/10/27 10:17:41;;;;;;;14.43;3.10;;;;;;;;;;5130373;27;20029;-65
2021/10/27 10:20:08;;;;;;;9.02;2.65;;;;;;;;;;5129738;27;20024;-65
2021/10/27 10:22:34;;;;;;;5.18;2.72;;;;;;;;;;5130799;28;20089;-65
2021/10/27 10:25:16;;;;;;;7.55;2.97;;;;;;;;;;5130065;28;20106;-65
2021/10/27 10:27:42;;;;;;;6.57;2.75;;;;;;;;;;5130287;28;20040;-65
2021/10/27 10:30:30;;;;;;;9.57;2.80;;;;;;;;;;5130633;28;20106;-65
2021/10/27 10:33:06;;;;;;;7.40;2.85;;;;;;;;;;5130863;28;20384;-64
2021/10/27 10:35:55;;;;;;;5.47;2.67;;;;;;;;;;5130938;28;20016;-64
2021/10/27 10:56:09;;;;;;;10.95;3.53;;;;;;;;;;5137186;27;20033;-65
2021/10/27 10:58:55;;;;;;;9.82;3.35;;;;;;;;;;5136862;27;20131;-65
2021/10/27 11:24:23;;;;;;;8.63;2.83;;;;;;;;;;5095937;28;20363;-65
2021/10/27 11:37:48;;;;;;;5.88;3.35;;;;;;;;;;5116047;28;20101;-65
2021/10/27 11:40:24;;;;;;;7.20;3.53;;;;;;;;;;5122125;27;20011;-65
2021/10/27 11:43:00;;;;;;;8.57;4.03;;;;;;;;;;5135101;27;20019;-66
2021/10/27 11:48:01;;;;;;;7.72;3.38;;;;;;;;;;5135866;27;20045;-66
2021/10/27 11:50:34;;;;;;;7.00;3.42;;;;;;;;;;5135301;27;20051;-66
2021/10/27 11:53:05;;;;;;;8.55;4.10;;;;;;;;;;5120344;27;20099;-65
2021/10/27 11:55:32;;;;;;;7.10;3.95;;;;;;;;;;5095719;28;20024;-65
2021/10/27 11:58:01;;;;;;;7.60;3.78;;;;;;;;;;5095215;28;20032;-65
2021/10/27 12:00:47;;;;;;;7.88;3.80;;;;;;;;;;5094969;28;20032;-66
2021/10/27 12:03:16;;;;;;;6.63;3.65;;;;;;;;;;5094810;28;20019;-65
2021/10/27 12:12:01;;;;;;;11.18;4.50;;;;;;;;;;5094454;28;20024;-65
2021/10/27 12:19:00;;;;;;;7.55;3.90;;;;;;;;;;5094868;28;20073;-65
2021/10/27 12:21:27;;;;;;;6.35;4.20;;;;;;;;;;5094798;28;20459;-65
2021/10/27 12:23:53;;;;;;;7.47;4.03;;;;;;;;;;5094217;28;20103;-65
2021/10/27 12:26:20;;;;;;;7.00;4.30;;;;;;;;;;5094275;28;20028;-65
2021/10/27 12:28:51;;;;;;;10.90;4.32;;;;;;;;;;5094023;28;20056;-65
2021/10/27 12:31:17;;;;;;;7.43;3.92;;;;;;;;;;5093314;28;20021;-65
2021/10/27 12:33:43;;;;;;;6.50;4.25;;;;;;;;;;5094490;28;20031;-65
2021/10/27 12:36:18;;;;;;;10.85;4.65;;;;;;;;;;5094292;28;20048;-65
2021/10/27 12:39:03;;;;;;;7.85;4.25;;;;;;;;;;5092731;28;20487;-65
2021/10/27 12:41:29;;;;;;;7.70;4.60;;;;;;;;;;5110968;28;20455;-65
2021/10/27 12:43:55;;;;;;;7.90;4.53;;;;;;;;;;5114303;28;20024;-65
2021/10/27 12:46:21;;;;;;;8.63;4.20;;;;;;;;;;5114167;28;20427;-65
2021/10/27 12:48:47;;;;;;;6.50;4.38;;;;;;;;;;5114140;28;20034;-65
2021/10/27 12:51:13;;;;;;;11.02;4.50;;;;;;;;;;5114503;28;20057;-65
2021/10/27 12:53:47;;;;;;;8.90;4.53;;;;;;;;;;5114491;28;20020;-65
2021/10/27 12:56:18;;;;;;;10.05;4.40;;;;;;;;;;5114232;28;20023;-65
2021/10/27 12:58:51;;;;;;;9.45;4.40;;;;;;;;;;5114032;28;20087;-65
2021/10/27 13:01:21;;;;;;;11.45;5.30;;;;;;;;;;5114070;28;20379;-65
2021/10/27 13:04:05;;;;;;;7.18;4.30;;;;;;;;;;5114347;28;20054;-65
2021/10/27 13:11:47;;;;;;;9.82;4.80;;;;;;;;;;5114127;28;20241;-65
2021/10/27 13:17:08;;;;;;;9.63;5.10;;;;;;;;;;5113824;28;20103;-66
2021/10/27 13:30:19;;;;;;;7.95;4.55;;;;;;;;;;5081991;28;20032;-65
2021/10/27 13:32:56;;;;;;;6.22;4.80;;;;;;;;;;5113632;28;20016;-66
2021/10/27 13:35:24;;;;;;;9.52;4.57;;;;;;;;;;5114116;28;20019;-66
2021/10/27 13:37:50;;;;;;;7.38;5.07;;;;;;;;;;5112225;28;20462;-65
2021/10/27 13:40:16;;;;;;;11.32;5.22;;;;;;;;;;5113582;28;20031;-64
2021/10/27 13:42:50;;;;;;;11.25;5.40;;;;;;;;;;5113721;28;20543;-64
2021/10/27 13:45:46;;;;;;;9.68;5.32;;;;;;;;;;5113689;28;20080;-65
2021/10/27 13:48:15;;;;;;;10.57;5.45;;;;;;;;;;5113073;28;20036;-64
2021/10/27 14:06:53;;;;;;;6.32;4.88;;;;;;;;;;5113713;28;20093;-64
2021/10/27 14:09:25;;;;;;;6.80;4.82;;;;;;;;;;5113455;28;20411;-64
2021/10/27 14:21:58;;;;;;;7.53;4.85;;;;;;;;;;5117270;28;20092;-64
2021/10/27 15:23:03;;;;;;;6.90;4.88;;;;;;;;;;5108525;28;20035;-65
2021/10/27 15:25:48;;;;;;;9.65;5.43;;;;;;;;;;5104385;28;20011;-66
2021/10/27 15:28:26;;;;;;;7.82;4.78;;;;;;;;;;5104997;28;20052;-65
2021/10/27 15:52:07;;;;;;;7.90;5.00;;;;;;;;;;5094643;28;20032;-65
2021/10/27 15:54:33;;;;;;;7.57;4.78;;;;;;;;;;5094905;28;20024;-64
2021/10/27 15:57:00;;;;;;;8.73;4.65;;;;;;;;;;5103620;28;20020;-64
2021/10/27 15:59:26;;;;;;;9.30;4.80;;;;;;;;;;5103464;28;20030;-65
2021/10/27 16:01:52;;;;;;;8.70;4.93;;;;;;;;;;5105558;28;20020;-65
2021/10/27 16:04:19;;;;;;;9.18;5.35;;;;;;;;;;5103018;28;20031;-64
2021/10/27 16:06:55;;;;;;;6.43;4.40;;;;;;;;;;5105309;28;20019;-66
2021/10/27 16:09:25;;;;;;;9.98;4.63;;;;;;;;;;5105576;28;20063;-65
2021/10/27 16:11:51;;;;;;;9.07;4.53;;;;;;;;;;5104094;28;20051;-65
2021/10/27 16:14:21;;;;;;;7.05;4.80;;;;;;;;;;5104329;28;20340;-63
2021/10/27 16:16:48;;;;;;;7.28;4.95;;;;;;;;;;5106199;28;20023;-67
2021/10/27 16:19:14;;;;;;;11.93;5.78;;;;;;;;;;5104557;28;20484;-65
2021/10/27 16:21:41;;;;;;;10.32;5.95;;;;;;;;;;5104782;28;20016;-64
2021/10/27 16:24:08;;;;;;;10.88;6.40;;;;;;;;;;5103101;28;20025;-64
2021/10/27 16:26:34;;;;;;;10.15;6.20;;;;;;;;;;5096577;28;20024;-64
2021/10/27 16:29:01;;;;;;;11.23;6.90;;;;;;;;;;5113450;28;20040;-64
2021/10/27 16:31:27;;;;;;;11.32;6.40;;;;;;;;;;5114181;28;20020;-64
2021/10/27 16:33:53;;;;;;;10.50;5.97;;;;;;;;;;5114579;28;20340;-65
2021/10/27 16:36:22;;;;;;;9.95;5.93;;;;;;;;;;5113720;28;20478;-66
2021/10/27 16:38:48;;;;;;;12.50;5.82;;;;;;;;;;5112945;28;20059;-66
2021/10/27 16:41:14;;;;;;;8.98;5.70;;;;;;;;;;5112598;28;20034;-66
2021/10/27 16:43:43;;;;;;;7.68;5.07;;;;;;;;;;5107804;28;20066;-65
2021/10/27 16:46:09;;;;;;;8.07;5.50;;;;;;;;;;5099675;28;20028;-66
2021/10/27 16:48:35;;;;;;;13.88;5.47;;;;;;;;;;5107708;28;20035;-66
2021/10/27 16:51:01;;;;;;;7.90;5.47;;;;;;;;;;5112765;28;20028;-67
2021/10/27 16:53:27;;;;;;;6.93;5.20;;;;;;;;;;5110371;28;20095;-66
2021/10/27 16:55:54;;;;;;;6.40;5.13;;;;;;;;;;5107808;28;20016;-65
2021/10/27 16:58:21;;;;;;;14.25;5.60;;;;;;;;;;5106237;28;20056;-65
2021/10/27 17:00:47;;;;;;;8.23;4.82;;;;;;;;;;5106705;28;20463;-66
2021/10/27 17:03:13;;;;;;;11.70;5.43;;;;;;;;;;5106803;28;20040;-67
2021/10/27 17:05:40;;;;;;;9.05;5.20;;;;;;;;;;5102527;28;20030;-67
2021/10/27 17:08:10;;;;;;;6.70;4.95;;;;;;;;;;5105604;28;20470;-65
2021/10/27 17:10:36;;;;;;;6.47;4.55;;;;;;;;;;5102312;28;20015;-67
2021/10/27 17:13:02;;;;;;;11.27;5.32;;;;;;;;;;5101962;28;20503;-66
2021/10/27 17:15:28;;;;;;;14.38;5.03;;;;;;;;;;5093645;28;20020;-71
2021/10/27 17:17:54;;;;;;;19.77;5.45;;;;;;;;;;5104657;28;20115;-70
2021/10/27 17:20:20;;;;;;;17.75;4.80;;;;;;;;;;5111472;28;20161;-68
2021/10/27 17:22:48;;;;;;;32.85;4.75;;;;;;;;;;5094759;28;20032;-69
2021/10/27 17:25:15;;;;;;;21.08;5.45;;;;;;;;;;5092594;28;20073;-68
2021/10/27 17:27:41;;;;;;;25.02;5.32;;;;;;;;;;5093205;28;20052;-67
2021/10/27 17:30:13;;;;;;;30.25;4.78;;;;;;;;;;5093522;28;20023;-65
2021/10/27 17:32:41;;;;;;;51.03;4.88;;;;;;;;;;5101467;28;20329;-64
2021/10/27 17:35:11;;;;;;;41.85;4.82;;;;;;;;;;5106984;28;20528;-66
2021/10/27 17:37:38;;;;;;;39.15;5.40;;;;;;;;;;5113487;28;20490;-67
2021/10/27 17:40:10;;;;;;;55.03;5.97;;;;;;;;;;5113136;28;20058;-70
2021/10/27 17:42:37;;;;;;;53.75;5.40;;;;;;;;;;5112652;28;20020;-68
2021/10/27 17:45:03;;;;;;;40.85;5.03;;;;;;;;;;5112840;28;20032;-70
2021/10/27 17:47:35;;;;;;;58.92;5.85;;;;;;;;;;5113461;28;20026;-67
2021/10/27 17:50:13;;;;;;;52.38;5.80;;;;;;;;;;5115566;28;20027;-68
2021/10/27 17:52:58;;;;;;;56.30;6.00;;;;;;;;;;5117952;28;20035;-67
2021/10/27 18:00:53;;;;;;;45.53;5.03;;;;;;;;;;5118080;28;20035;-66
2021/10/27 18:03:20;;;;;;;33.72;4.88;;;;;;;;;;5116918;28;20466;-67
2021/10/27 18:05:46;;;;;;;30.38;4.57;;;;;;;;;;5118123;28;20072;-67
2021/10/27 18:08:15;;;;;;;24.23;5.20;;;;;;;;;;5117119;28;20129;-68
2021/10/27 18:10:43;;;;;;;30.17;4.72;;;;;;;;;;5117328;28;20019;-68
2021/10/27 18:13:15;;;;;;;28.20;5.20;;;;;;;;;;5117819;28;20100;-68
2021/10/27 18:15:43;;;;;;;38.10;5.05;;;;;;;;;;5117267;28;20121;-67
2021/10/27 18:18:17;;;;;;;23.67;5.07;;;;;;;;;;5120145;28;20031;-67
2021/10/27 18:20:46;;;;;;;29.20;5.03;;;;;;;;;;5117977;28;20020;-68
2021/10/27 18:28:34;;;;;;;25.50;4.10;;;;;;;;;;5117063;28;20086;-67
2021/10/27 18:36:43;;;;;;;19.25;4.28;;;;;;;;;;5109175;28;20383;-68
2021/10/27 18:39:21;;;;;;;9.63;4.03;;;;;;;;;;5117215;28;20063;-68
2021/10/27 18:41:56;;;;;;;23.83;3.92;;;;;;;;;;5111862;28;20012;-67
2021/10/27 18:44:22;;;;;;;13.02;4.20;;;;;;;;;;5098268;28;20024;-67
2021/10/27 18:46:49;;;;;;;27.73;4.45;;;;;;;;;;5111048;28;20362;-68
2021/10/27 18:49:16;;;;;;;15.90;4.70;;;;;;;;;;5101583;28;20460;-67
2021/10/27 18:51:53;;;;;;;9.32;3.80;;;;;;;;;;5116529;28;20020;-68
2021/10/27 18:54:32;;;;;;;13.27;4.13;;;;;;;;;;5113999;28;20055;-67
2021/10/27 19:02:20;;;;;;;10.05;3.83;;;;;;;;;;5116205;28;20050;-67
2021/10/27 19:13:15;;;;;;;15.32;3.50;;;;;;;;;;5115979;28;20489;-67
2021/10/27 19:15:42;;;;;;;6.68;3.70;;;;;;;;;;5114920;28;20031;-67
2021/10/27 19:18:08;;;;;;;7.18;3.42;;;;;;;;;;5115892;28;20161;-67
2021/10/27 19:20:34;;;;;;;8.23;3.65;;;;;;;;;;5116086;28;20026;-66
2021/10/27 19:23:01;;;;;;;10.10;3.38;;;;;;;;;;5116130;28;20062;-67
2021/10/27 19:25:53;;;;;;;7.20;3.42;;;;;;;;;;5116200;28;20015;-67
2021/10/27 19:28:40;;;;;;;11.93;3.70;;;;;;;;;;5115557;28;20138;-68
2021/10/27 19:34:05;;;;;;;4.88;3.28;;;;;;;;;;5115084;28;20038;-68
2021/10/27 20:07:17;;;;;;;8.82;2.85;;;;;;;;;;5112282;28;20031;-66
2021/10/27 20:12:37;;;;;;;10.98;2.60;;;;;;;;;;5109778;28;20137;-68
2021/10/27 20:23:49;;;;;;;9.07;3.78;;;;;;;;;;5114527;28;20023;-67
2021/10/27 20:52:46;;;;;;;6.07;3.42;;;;;;;;;;5105906;28;20104;-66
2021/10/27 20:55:13;;;;;;;4.93;3.17;;;;;;;;;;5106336;28;20016;-67
2021/10/27 20:57:48;;;;;;;5.10;3.10;;;;;;;;;;5106620;28;20051;-66
2021/10/27 21:13:30;;;;;;;6.30;3.03;;;;;;;;;;5110703;28;20038;-66
2021/10/27 21:15:59;;;;;;;5.25;3.10;;;;;;;;;;5109168;28;20023;-67
2021/10/27 21:18:28;;;;;;;5.38;2.80;;;;;;;;;;5105708;28;20060;-66
2021/10/27 21:20:55;;;;;;;6.72;3.08;;;;;;;;;;5091245;28;20085;-66